Time;durP1;ratioP1;P1;durP2;ratioP2;P2;SDS_P1;SDS_P2;PMS_P1;PMS_P2;Temp;Humidity;BMP_temperature;BMP_pressure;BME280_temperature;BME280_humidity;BME280_pressure;Samples;Min_cycle;Max_cycle;Signal;HPM_P1;HPM_P2
2022/01/20 00:00:19;;;;;;;28.90;4.22;;;;;;;2.74;100.00;101676.47;4971292;28;20113;-87
2022/01/20 00:02:58;;;;;;;24.80;4.20;;;;;;;2.74;100.00;101695.88;4970343;28;20049;-87
2022/01/20 00:08:06;;;;;;;19.85;4.22;;;;;;;2.82;100.00;101690.97;4900356;28;20074;-87
2022/01/20 00:27:04;;;;;;;22.00;3.45;;;;;;;3.05;100.00;101699.28;4855739;29;20154;-87
2022/01/20 00:29:32;;;;;;;17.10;3.33;;;;;;;3.02;100.00;101697.72;4935856;28;20083;-88
2022/01/20 00:32:09;;;;;;;18.20;2.53;;;;;;;3.03;100.00;101691.44;4965603;28;20133;-86
2022/01/20 00:37:21;;;;;;;24.63;4.75;;;;;;;3.03;100.00;101690.59;4965594;28;20110;-87
2022/01/20 00:39:46;;;;;;;21.30;3.65;;;;;;;3.02;100.00;101700.38;4900312;28;20468;-86
2022/01/20 00:42:12;;;;;;;23.13;4.15;;;;;;;3.03;100.00;101698.56;4895672;28;20223;-87
2022/01/20 00:44:37;;;;;;;18.85;4.25;;;;;;;3.04;100.00;101697.59;4966460;28;20043;-87
2022/01/20 00:47:03;;;;;;;29.63;6.15;;;;;;;3.07;100.00;101692.94;4964327;28;20043;-87
2022/01/20 00:49:29;;;;;;;26.80;4.70;;;;;;;3.04;100.00;101681.69;4987353;28;20062;-87
2022/01/20 00:51:54;;;;;;;23.35;4.75;;;;;;;3.01;100.00;101680.06;4969668;28;20054;-88
2022/01/20 00:54:20;;;;;;;31.55;5.65;;;;;;;3.01;100.00;101687.19;4985461;28;20050;-88
2022/01/20 00:56:46;;;;;;;31.52;5.00;;;;;;;3.00;100.00;101682.84;4972852;28;20070;-86
2022/01/20 00:59:11;;;;;;;26.83;4.28;;;;;;;2.97;100.00;101683.88;4970530;28;20043;-86
2022/01/20 01:01:37;;;;;;;21.92;5.13;;;;;;;2.98;100.00;101690.88;4900552;28;20050;-87
2022/01/20 01:04:02;;;;;;;22.67;4.35;;;;;;;2.93;100.00;101687.63;4962914;28;20098;-87
2022/01/20 01:06:41;;;;;;;28.20;5.78;;;;;;;2.92;100.00;101686.78;4969414;28;20050;-87
2022/01/20 01:09:07;;;;;;;37.58;5.22;;;;;;;2.89;100.00;101686.13;4970320;28;20999;-86
2022/01/20 01:11:33;;;;;;;20.48;4.68;;;;;;;2.92;100.00;101692.09;4986050;28;20054;-87
2022/01/20 01:14:01;;;;;;;22.67;3.60;;;;;;;2.93;100.00;101696.47;4969940;28;20497;-87
2022/01/20 01:16:38;;;;;;;33.70;4.32;;;;;;;2.94;100.00;101700.81;4968549;28;20055;-87
2022/01/20 01:22:02;;;;;;;34.88;5.10;;;;;;;3.02;100.00;101696.84;4970692;28;20061;-87
2022/01/20 01:24:28;;;;;;;24.60;4.63;;;;;;;3.00;100.00;101696.94;4925684;28;20049;-87
2022/01/20 01:26:53;;;;;;;28.17;4.47;;;;;;;3.02;100.00;101691.53;4958305;28;20134;-87
2022/01/20 01:30:08;;;;;;;30.02;5.05;;;;;;;3.05;100.00;101699.28;4915138;28;20049;-86
2022/01/20 01:32:07;;;;;;;23.58;4.57;;;;;;;3.06;100.00;101693.91;4965606;28;20509;-87
2022/01/20 01:34:35;;;;;;;23.45;4.50;;;;;;;3.10;100.00;101698.06;4955835;28;20045;-86
2022/01/20 01:39:27;;;;;;;24.13;4.63;;;;;;;3.16;100.00;101700.38;4971281;28;20047;-87
2022/01/20 01:41:53;;;;;;;22.95;2.72;;;;;;;3.16;100.00;101689.75;4968843;28;20082;-87
2022/01/20 01:44:23;;;;;;;21.60;3.38;;;;;;;3.22;100.00;101699.09;4929502;28;20049;-86
2022/01/20 01:46:49;;;;;;;22.15;3.35;;;;;;;3.24;100.00;101685.78;4928184;28;20067;-87
2022/01/20 01:49:16;;;;;;;25.23;5.22;;;;;;;3.30;100.00;101696.84;4886643;28;20490;-87
2022/01/20 01:51:42;;;;;;;22.92;3.20;;;;;;;3.32;100.00;101692.31;4969562;28;20109;-87
2022/01/20 01:54:10;;;;;;;17.55;3.08;;;;;;;3.34;100.00;101709.00;4967370;28;20088;-86
2022/01/20 01:56:36;;;;;;;17.65;2.97;;;;;;;3.38;100.00;101710.50;4970528;28;20049;-86
2022/01/20 01:59:01;;;;;;;19.67;2.80;;;;;;;3.36;100.00;101700.91;4969650;28;20039;-86
2022/01/20 02:01:31;;;;;;;21.17;4.38;;;;;;;3.35;100.00;101713.34;4983920;28;20046;-87
2022/01/20 02:04:00;;;;;;;15.65;3.35;;;;;;;3.39;100.00;101693.66;4970212;28;20043;-87
2022/01/20 02:09:19;;;;;;;14.90;2.90;;;;;;;3.41;100.00;101704.13;4968310;28;20138;-86
2022/01/20 02:19:57;;;;;;;10.80;2.33;;;;;;;3.44;100.00;101693.34;4978910;28;20134;-86
2022/01/20 02:22:23;;;;;;;12.63;3.60;;;;;;;3.45;100.00;101697.69;4972817;28;20137;-86
2022/01/20 02:24:49;;;;;;;17.20;3.10;;;;;;;3.50;100.00;101697.41;4903160;28;20056;-87
2022/01/20 02:27:14;;;;;;;16.83;2.53;;;;;;;3.47;100.00;101692.28;4981933;28;20054;-86
2022/01/20 02:29:41;;;;;;;21.90;3.55;;;;;;;3.46;100.00;101707.38;4974761;28;20116;-87
2022/01/20 02:32:07;;;;;;;10.77;2.47;;;;;;;3.42;100.00;101700.53;4967241;28;20054;-87
2022/01/20 02:34:33;;;;;;;18.38;3.22;;;;;;;3.42;100.00;101687.25;4982816;28;20100;-87
2022/01/20 02:37:02;;;;;;;20.00;3.28;;;;;;;3.41;100.00;101674.09;4967060;28;20050;-86
2022/01/20 02:40:29;;;;;;;14.05;2.92;;;;;;;3.42;100.00;101683.75;4982775;28;20054;-87
2022/01/20 02:45:03;;;;;;;19.13;2.78;;;;;;;3.41;100.00;101682.06;4968225;28;20057;-87
2022/01/20 02:47:30;;;;;;;15.17;3.00;;;;;;;3.43;100.00;101688.13;4983161;28;20534;-86
2022/01/20 02:49:56;;;;;;;14.30;2.70;;;;;;;3.42;100.00;101674.00;4967734;28;20051;-86
2022/01/20 02:52:23;;;;;;;16.08;2.83;;;;;;;3.46;100.00;101682.63;4969447;28;20045;-87
2022/01/20 02:54:50;;;;;;;17.63;2.97;;;;;;;3.43;100.00;101685.50;4983337;28;20133;-87
2022/01/20 02:57:16;;;;;;;14.30;2.42;;;;;;;3.41;100.00;101698.84;4889002;28;20035;-86
2022/01/20 02:59:41;;;;;;;14.68;2.75;;;;;;;3.39;100.00;101695.41;4987707;28;20070;-88
2022/01/20 03:02:08;;;;;;;14.85;3.45;;;;;;;3.36;100.00;101692.97;4985364;28;20043;-87
2022/01/20 03:04:34;;;;;;;15.02;2.72;;;;;;;3.33;100.00;101691.34;4986977;28;20109;-87
2022/01/20 03:07:00;;;;;;;14.20;2.55;;;;;;;3.32;100.00;101691.47;4971743;28;20046;-87
2022/01/20 03:09:26;;;;;;;13.57;2.92;;;;;;;3.35;100.00;101692.13;4971849;28;20051;-87
2022/01/20 03:11:51;;;;;;;13.55;2.38;;;;;;;3.34;100.00;101695.72;4986586;28;20793;-87
2022/01/20 03:14:17;;;;;;;9.55;2.85;;;;;;;3.33;100.00;101685.19;4947640;28;20050;-87
2022/01/20 03:16:46;;;;;;;13.90;2.40;;;;;;;3.35;100.00;101684.16;4934593;28;20182;-87
2022/01/20 03:19:12;;;;;;;15.43;3.75;;;;;;;3.38;100.00;101681.31;4974370;28;20039;-86
2022/01/20 03:21:39;;;;;;;16.98;2.92;;;;;;;3.40;100.00;101675.91;4915284;28;20037;-87
2022/01/20 03:24:05;;;;;;;17.05;3.03;;;;;;;3.43;100.00;101685.50;4954216;28;20085;-87
2022/01/20 03:26:30;;;;;;;17.48;3.08;;;;;;;3.41;100.00;101685.56;4939167;28;20043;-86
2022/01/20 03:28:57;;;;;;;16.67;2.72;;;;;;;3.38;100.00;101689.25;4888554;28;20051;-87
2022/01/20 03:31:23;;;;;;;14.55;2.67;;;;;;;3.41;100.00;101687.38;4873451;29;20045;-87
2022/01/20 03:33:49;;;;;;;16.00;2.58;;;;;;;3.38;100.00;101645.97;4873934;29;20037;-87
2022/01/20 03:36:15;;;;;;;16.08;2.80;;;;;;;3.41;100.00;101674.09;4873050;29;20132;-87
2022/01/20 03:38:40;;;;;;;12.70;2.92;;;;;;;3.39;100.00;101671.53;4961544;28;20121;-88
2022/01/20 03:41:06;;;;;;;10.32;2.53;;;;;;;3.36;100.00;101683.19;4881276;28;20052;-87
2022/01/20 03:43:32;;;;;;;9.50;2.20;;;;;;;3.38;100.00;101686.59;4955487;28;20473;-86
2022/01/20 03:45:59;;;;;;;9.13;2.17;;;;;;;3.36;100.00;101672.56;4944449;28;20490;-86
2022/01/20 03:48:27;;;;;;;9.25;2.25;;;;;;;3.37;100.00;101694.69;4885437;28;20112;-86
2022/01/20 03:51:02;;;;;;;14.43;3.13;;;;;;;3.37;100.00;101711.44;4894379;29;20041;-86
2022/01/20 03:53:31;;;;;;;13.48;2.47;;;;;;;3.38;100.00;101710.50;5007868;28;20561;-87
2022/01/20 03:55:57;;;;;;;8.88;2.25;;;;;;;3.35;100.00;101707.19;4976562;28;20039;-86
2022/01/20 03:58:23;;;;;;;14.80;3.17;;;;;;;3.33;100.00;101701.09;4971333;28;20050;-87
2022/01/20 04:00:48;;;;;;;10.98;1.73;;;;;;;3.34;100.00;101694.88;4969508;28;20046;-87
2022/01/20 04:03:16;;;;;;;12.18;1.88;;;;;;;3.34;100.00;101698.38;4938195;28;20047;-87
2022/01/20 04:06:00;;;;;;;11.30;2.00;;;;;;;3.35;100.00;101694.75;4970250;28;20490;-86
2022/01/20 04:08:31;;;;;;;10.65;2.35;;;;;;;3.34;100.00;101711.63;4924378;28;20134;-87
2022/01/20 04:10:56;;;;;;;10.52;1.83;;;;;;;3.34;100.00;101716.94;4970091;28;20167;-87
2022/01/20 04:13:22;;;;;;;8.98;1.60;;;;;;;3.35;100.00;101712.50;4969816;28;20063;-87
2022/01/20 04:15:49;;;;;;;8.50;2.05;;;;;;;3.35;100.00;101731.91;4970363;28;20042;-87
2022/01/20 04:18:21;;;;;;;11.82;2.05;;;;;;;3.35;100.00;101721.28;4971090;28;20142;-87
2022/01/20 04:20:47;;;;;;;9.45;1.95;;;;;;;3.36;100.00;101728.28;4971928;28;20038;-86
2022/01/20 04:23:13;;;;;;;10.90;2.05;;;;;;;3.35;100.00;101726.59;4969932;28;20039;-87
2022/01/20 04:25:38;;;;;;;11.23;2.50;;;;;;;3.34;100.00;101746.13;4970155;28;20045;-87
2022/01/20 04:28:04;;;;;;;8.63;1.70;;;;;;;3.31;100.00;101741.03;4984008;28;20307;-87
2022/01/20 04:30:29;;;;;;;8.38;2.30;;;;;;;3.30;100.00;101743.75;4970371;28;20047;-87
2022/01/20 04:32:55;;;;;;;9.98;2.38;;;;;;;3.28;100.00;101748.28;4970131;28;20093;-86
2022/01/20 04:35:21;;;;;;;11.98;1.90;;;;;;;3.25;100.00;101757.31;4918888;28;20037;-87
2022/01/20 04:37:48;;;;;;;10.00;2.40;;;;;;;3.22;100.00;101762.78;4951916;28;20489;-86
2022/01/20 04:40:15;;;;;;;11.38;2.22;;;;;;;3.18;100.00;101755.97;4970148;28;20516;-86
2022/01/20 04:42:43;;;;;;;9.38;2.13;;;;;;;3.12;100.00;101773.09;4972639;28;20121;-87
2022/01/20 04:45:12;;;;;;;11.70;2.00;;;;;;;3.11;100.00;101770.56;4968501;28;20073;-87
2022/01/20 04:58:17;;;;;;;12.15;2.40;;;;;;;2.97;100.00;101773.19;4965703;28;20465;-87
2022/01/20 05:00:42;;;;;;;10.85;1.58;;;;;;;2.94;100.00;101776.88;4878347;28;20050;-87
2022/01/20 05:03:08;;;;;;;13.82;2.35;;;;;;;2.91;100.00;101782.34;4891358;28;20056;-87
2022/01/20 05:05:34;;;;;;;12.20;2.17;;;;;;;2.90;100.00;101783.28;4985670;28;20054;-87
2022/01/20 05:08:00;;;;;;;12.70;2.08;;;;;;;2.89;100.00;101786.88;4984450;28;20067;-87
2022/01/20 05:10:28;;;;;;;13.60;3.30;;;;;;;2.87;100.00;101784.31;4984119;28;20045;-86
2022/01/20 05:15:20;;;;;;;15.65;3.45;;;;;;;2.81;100.00;101786.47;4968544;28;20066;-87
2022/01/20 05:17:46;;;;;;;12.10;2.58;;;;;;;2.81;100.00;101799.72;4967450;28;20073;-86
2022/01/20 05:20:12;;;;;;;13.45;2.97;;;;;;;2.78;100.00;101799.91;4896150;28;20489;-87
2022/01/20 05:22:38;;;;;;;10.10;2.20;;;;;;;2.77;100.00;101809.66;4980556;28;20059;-86
2022/01/20 05:25:04;;;;;;;11.50;2.45;;;;;;;2.75;100.00;101810.69;4982743;28;20121;-87
2022/01/20 05:27:30;;;;;;;11.43;2.88;;;;;;;2.76;100.00;101815.88;4972929;28;20457;-86
2022/01/20 05:29:56;;;;;;;11.27;2.65;;;;;;;2.75;100.00;101821.28;4964152;28;20043;-86
2022/01/20 05:32:22;;;;;;;15.43;2.38;;;;;;;2.76;100.00;101847.69;4965724;28;20054;-86
2022/01/20 05:34:48;;;;;;;16.08;2.45;;;;;;;2.76;100.00;101844.19;4966731;28;20116;-86
2022/01/20 05:37:14;;;;;;;11.82;2.15;;;;;;;2.75;100.00;101834.53;4981794;28;20042;-85
2022/01/20 05:39:39;;;;;;;15.02;3.05;;;;;;;2.71;100.00;101841.81;4908949;28;20063;-87
2022/01/20 05:42:05;;;;;;;10.77;2.53;;;;;;;2.73;100.00;101837.28;4912899;28;20510;-86
2022/01/20 05:44:31;;;;;;;11.05;2.40;;;;;;;2.70;100.00;101845.41;4950431;28;20062;-86
2022/01/20 05:46:56;;;;;;;16.77;2.78;;;;;;;2.68;100.00;101847.31;4894744;28;20115;-86
2022/01/20 05:49:22;;;;;;;16.50;3.03;;;;;;;2.70;100.00;101845.41;4878860;28;20820;-86
2022/01/20 05:51:54;;;;;;;12.32;2.30;;;;;;;2.69;100.00;101843.69;4962974;28;20051;-86
2022/01/20 05:54:21;;;;;;;16.80;2.63;;;;;;;2.62;100.00;101845.00;4978205;28;20061;-86
2022/01/20 05:56:47;;;;;;;13.50;3.20;;;;;;;2.60;100.00;101858.34;4977308;28;20077;-86
2022/01/20 05:59:12;;;;;;;15.93;3.70;;;;;;;2.64;100.00;101848.41;4978604;28;20520;-86
2022/01/20 06:01:38;;;;;;;18.75;3.00;;;;;;;2.63;100.00;101865.25;4979916;28;20051;-86
2022/01/20 06:04:09;;;;;;;15.10;3.15;;;;;;;2.60;100.00;101879.53;4968293;28;20050;-86
2022/01/20 06:06:35;;;;;;;17.80;3.30;;;;;;;2.60;100.00;101882.19;4963159;28;20075;-86
2022/01/20 06:09:05;;;;;;;17.23;3.00;;;;;;;2.64;100.00;101869.59;4962270;28;20058;-86
2022/01/20 06:11:32;;;;;;;15.88;2.90;;;;;;;2.66;100.00;101878.34;4979475;28;20382;-86
2022/01/20 06:13:57;;;;;;;14.50;3.55;;;;;;;2.65;100.00;101880.13;4900478;28;20058;-86
2022/01/20 06:16:23;;;;;;;15.07;3.00;;;;;;;2.67;100.00;101882.69;4912656;28;20416;-86
2022/01/20 06:18:50;;;;;;;18.65;3.10;;;;;;;2.61;100.00;101890.97;4877007;28;20144;-86
2022/01/20 06:21:15;;;;;;;14.98;3.55;;;;;;;2.64;100.00;101894.31;4958470;28;20202;-85
2022/01/20 06:23:41;;;;;;;19.65;3.28;;;;;;;2.65;100.00;101897.84;4962027;28;20039;-86
2022/01/20 06:26:07;;;;;;;18.60;3.47;;;;;;;2.64;100.00;101888.16;4896222;28;20097;-85
2022/01/20 06:28:34;;;;;;;13.85;3.00;;;;;;;2.64;100.00;101893.47;4982787;28;20046;-86
2022/01/20 06:31:00;;;;;;;17.05;3.47;;;;;;;2.63;100.00;101905.88;4901034;28;20455;-86
2022/01/20 06:33:25;;;;;;;14.27;3.55;;;;;;;2.60;100.00;101911.34;4913953;28;20045;-86
2022/01/20 06:35:50;;;;;;;12.13;3.40;;;;;;;2.63;100.00;101927.06;4955541;28;20183;-85
2022/01/20 06:38:17;;;;;;;23.25;3.60;;;;;;;2.63;100.00;101952.72;4897871;28;20049;-86
2022/01/20 06:40:43;;;;;;;14.05;3.97;;;;;;;2.60;100.00;101945.78;4963414;28;20133;-85
2022/01/20 06:43:09;;;;;;;13.63;2.40;;;;;;;2.61;100.00;101941.34;4966808;28;20121;-86
2022/01/20 06:45:34;;;;;;;9.90;2.40;;;;;;;2.59;100.00;101924.66;4966850;28;20038;-85
2022/01/20 06:48:00;;;;;;;14.40;2.85;;;;;;;2.56;100.00;101953.97;4951709;28;20125;-85
2022/01/20 06:50:26;;;;;;;15.68;3.45;;;;;;;2.55;100.00;101941.69;4963151;28;20496;-86
2022/01/20 06:52:52;;;;;;;14.93;3.33;;;;;;;2.55;100.00;101957.56;4966324;28;20070;-86
2022/01/20 06:55:18;;;;;;;15.13;3.30;;;;;;;2.52;100.00;101966.53;4882175;28;20055;-85
2022/01/20 06:57:44;;;;;;;20.40;4.10;;;;;;;2.47;100.00;101966.81;4983865;28;20134;-86
2022/01/20 07:00:13;;;;;;;14.68;3.63;;;;;;;2.46;100.00;101974.84;4897405;28;20136;-85
2022/01/20 07:02:39;;;;;;;18.02;3.33;;;;;;;2.39;100.00;101979.63;4982535;28;20109;-86
2022/01/20 07:05:05;;;;;;;17.02;3.45;;;;;;;2.39;100.00;101976.97;4965008;28;20051;-86
2022/01/20 07:07:31;;;;;;;12.68;3.03;;;;;;;2.39;100.00;101986.72;4965970;28;20078;-87
2022/01/20 07:09:57;;;;;;;15.10;3.92;;;;;;;2.35;100.00;101991.28;4891842;28;20657;-86
2022/01/20 07:12:23;;;;;;;14.93;2.92;;;;;;;2.36;100.00;101994.78;4972309;28;20710;-86
2022/01/20 07:14:49;;;;;;;16.65;3.75;;;;;;;2.34;100.00;101986.94;4968001;28;20050;-86
2022/01/20 07:17:14;;;;;;;11.00;2.92;;;;;;;2.34;100.00;101991.41;4963474;28;20043;-86
2022/01/20 07:19:40;;;;;;;13.35;3.22;;;;;;;2.34;100.00;101981.66;4965603;28;20138;-87
2022/01/20 07:22:05;;;;;;;14.32;3.75;;;;;;;2.35;100.00;101993.09;4956999;28;20138;-86
2022/01/20 07:24:31;;;;;;;10.70;2.80;;;;;;;2.32;100.00;101988.81;4965614;28;20592;-86
2022/01/20 07:26:59;;;;;;;13.13;2.88;;;;;;;2.35;100.00;101993.09;4896549;28;20500;-86
2022/01/20 07:29:26;;;;;;;12.25;2.55;;;;;;;2.32;100.00;101993.25;4936283;28;20098;-87
2022/01/20 07:31:52;;;;;;;16.20;2.60;;;;;;;2.33;100.00;101993.19;4981163;28;20072;-87
2022/01/20 07:34:17;;;;;;;16.45;3.50;;;;;;;2.28;100.00;101991.72;4965748;28;20038;-87
2022/01/20 07:36:43;;;;;;;14.98;3.13;;;;;;;2.30;100.00;101998.63;4968036;28;20039;-87
2022/01/20 07:39:08;;;;;;;15.90;3.70;;;;;;;2.30;100.00;101992.47;4969114;28;20062;-87
2022/01/20 07:41:33;;;;;;;11.80;2.38;;;;;;;2.29;100.00;102007.53;4984971;28;20050;-87
2022/01/20 07:43:59;;;;;;;14.77;3.35;;;;;;;2.23;100.00;102011.34;4983028;28;20059;-87
2022/01/20 07:46:25;;;;;;;15.88;3.03;;;;;;;2.21;100.00;102001.78;4892572;28;20049;-87
2022/01/20 07:48:50;;;;;;;12.90;3.50;;;;;;;2.17;100.00;102016.13;4879141;29;20041;-87
2022/01/20 07:51:17;;;;;;;13.63;2.67;;;;;;;2.16;100.00;102019.72;4962006;28;20097;-87
2022/01/20 07:53:42;;;;;;;13.45;2.45;;;;;;;2.16;100.00;102030.31;4980935;28;20078;-87
2022/01/20 07:56:09;;;;;;;12.57;3.05;;;;;;;2.15;100.00;102033.88;4976248;28;20081;-87
2022/01/20 07:58:35;;;;;;;9.93;2.20;;;;;;;2.12;100.00;102041.97;4978913;28;20075;-87
2022/01/20 08:01:02;;;;;;;14.82;2.53;;;;;;;2.13;100.00;102051.63;4977490;28;20445;-87
2022/01/20 08:03:28;;;;;;;12.27;2.80;;;;;;;2.19;100.00;102056.63;4863975;28;20053;-87
2022/01/20 08:05:53;;;;;;;13.23;2.72;;;;;;;2.13;100.00;102043.69;4880247;29;20067;-88
2022/01/20 08:08:19;;;;;;;17.13;3.38;;;;;;;2.09;100.00;102050.09;4972620;28;20051;-87
2022/01/20 08:10:45;;;;;;;17.50;3.00;;;;;;;2.10;100.00;102038.53;4980019;28;20047;-87
2022/01/20 08:13:10;;;;;;;11.88;2.35;;;;;;;2.02;100.00;102049.56;4982319;28;20050;-88
2022/01/20 08:15:36;;;;;;;15.88;2.80;;;;;;;2.02;100.00;102050.41;4963538;28;20042;-87
2022/01/20 08:18:02;;;;;;;15.57;3.00;;;;;;;2.03;100.00;102046.81;4963873;28;20046;-87
2022/01/20 08:20:27;;;;;;;17.80;3.20;;;;;;;2.03;100.00;102060.03;4880482;28;20040;-87
2022/01/20 08:22:53;;;;;;;10.30;2.80;;;;;;;2.06;100.00;102056.38;4881224;29;20056;-86
2022/01/20 08:25:19;;;;;;;16.20;4.22;;;;;;;2.07;100.00;102051.94;4956078;28;20147;-87
2022/01/20 08:27:47;;;;;;;18.88;5.18;;;;;;;2.04;100.00;102045.00;4963733;28;20051;-87
2022/01/20 08:30:17;;;;;;;12.23;3.70;;;;;;;2.08;100.00;102051.03;4964138;28;20710;-87
2022/01/20 08:32:44;;;;;;;15.15;4.35;;;;;;;2.05;100.00;102062.63;4961756;28;20050;-87
2022/01/20 08:35:11;;;;;;;15.27;3.92;;;;;;;2.12;100.00;102060.50;4964638;28;20066;-87
2022/01/20 08:37:40;;;;;;;17.02;3.55;;;;;;;2.10;100.00;102063.25;4964061;28;20047;-87
2022/01/20 08:40:14;;;;;;;11.00;2.35;;;;;;;2.15;100.00;102063.00;4978214;28;20051;-87
2022/01/20 08:42:42;;;;;;;17.67;4.15;;;;;;;2.15;100.00;102065.66;4975129;28;20059;-87
2022/01/20 08:45:10;;;;;;;8.20;2.38;;;;;;;2.16;100.00;102062.94;4897389;28;20045;-87
2022/01/20 08:47:35;;;;;;;10.90;2.60;;;;;;;2.18;100.00;102068.16;4909497;28;20111;-87
2022/01/20 08:50:05;;;;;;;12.90;2.85;;;;;;;2.18;100.00;102070.78;4949180;28;20046;-87
2022/01/20 08:52:30;;;;;;;;;;;;;;;2.19;100.00;102075.19;4964326;28;20055;-87
2022/01/20 08:54:58;;;;;;;10.35;1.83;;;;;;;2.09;100.00;102071.28;4968644;28;20381;-87
2022/01/20 08:57:24;;;;;;;13.85;3.05;;;;;;;2.12;100.00;102069.31;4849148;28;20376;-88
2022/01/20 08:59:51;;;;;;;11.10;2.45;;;;;;;2.14;100.00;102085.13;4952005;28;20046;-87
2022/01/20 09:02:17;;;;;;;10.50;2.45;;;;;;;2.16;100.00;102078.84;4983056;28;20053;-87
2022/01/20 09:04:43;;;;;;;10.13;2.63;;;;;;;2.19;100.00;102085.78;4972457;28;20137;-87
2022/01/20 09:07:08;;;;;;;11.57;2.30;;;;;;;2.21;100.00;102092.66;4892587;28;20144;-87
2022/01/20 09:09:40;;;;;;;12.32;2.10;;;;;;;2.20;100.00;102106.00;4966591;28;20438;-88
2022/01/20 09:17:21;;;;;;;16.30;3.35;;;;;;;2.23;100.00;102103.19;4964940;28;20057;-87
2022/01/20 09:19:48;;;;;;;17.05;4.55;;;;;;;2.23;100.00;102085.50;4903551;28;20041;-87
2022/01/20 09:22:14;;;;;;;12.55;2.70;;;;;;;2.27;100.00;102094.16;4970382;28;20051;-87
2022/01/20 09:24:39;;;;;;;11.02;2.53;;;;;;;2.28;100.00;102101.19;4937315;28;20049;-87
2022/01/20 09:27:06;;;;;;;10.75;2.78;;;;;;;2.29;100.00;102100.22;4843837;28;20392;-87
2022/01/20 09:29:31;;;;;;;11.70;2.42;;;;;;;2.33;100.00;102107.09;4924636;28;20131;-87
2022/01/20 09:31:58;;;;;;;11.80;2.50;;;;;;;2.34;100.00;102103.50;4962532;28;20210;-87
2022/01/20 09:34:24;;;;;;;13.07;2.97;;;;;;;2.34;100.00;102105.31;4898544;28;20038;-87
2022/01/20 09:36:50;;;;;;;11.23;3.25;;;;;;;2.35;100.00;102109.66;4907974;28;20071;-87
2022/01/20 09:39:16;;;;;;;17.25;3.40;;;;;;;2.39;100.00;102108.59;4969188;28;20057;-87
2022/01/20 09:41:45;;;;;;;11.68;2.47;;;;;;;2.39;100.00;102106.78;4965430;28;20038;-87
2022/01/20 09:44:11;;;;;;;13.57;2.92;;;;;;;2.47;100.00;102111.66;4980697;28;20654;-87
2022/01/20 09:46:38;;;;;;;11.07;2.92;;;;;;;2.51;100.00;102115.03;4909476;28;20057;-87
2022/01/20 09:49:04;;;;;;;12.82;3.42;;;;;;;2.53;100.00;102114.00;4947891;28;20438;-87
2022/01/20 09:51:29;;;;;;;14.63;2.67;;;;;;;2.48;100.00;102126.66;4913973;28;20116;-86
2022/01/20 09:53:55;;;;;;;11.98;3.13;;;;;;;2.49;100.00;102129.22;4942380;28;20077;-87
2022/01/20 09:56:21;;;;;;;10.63;3.17;;;;;;;2.49;100.00;102128.34;4962120;28;20049;-87
2022/01/20 09:58:47;;;;;;;12.85;2.65;;;;;;;2.53;100.00;102135.19;4965896;28;20047;-87
2022/01/20 10:01:12;;;;;;;16.30;2.75;;;;;;;2.61;100.00;102138.31;4961868;28;20061;-87
2022/01/20 10:03:39;;;;;;;12.02;2.72;;;;;;;2.65;100.00;102147.84;4963211;28;20123;-86
2022/01/20 10:06:05;;;;;;;16.58;4.78;;;;;;;2.66;100.00;102140.72;4965802;28;20133;-87
2022/01/20 10:08:33;;;;;;;22.13;6.50;;;;;;;2.69;100.00;102135.28;4963132;28;20109;-87
2022/01/20 10:11:03;;;;;;;18.13;3.42;;;;;;;2.75;100.00;102142.03;4964744;28;20405;-87
2022/01/20 10:13:31;;;;;;;15.23;2.95;;;;;;;2.78;100.00;102155.13;4961200;28;20109;-87
2022/01/20 10:16:06;;;;;;;15.95;3.47;;;;;;;2.78;100.00;102147.19;4963650;28;20042;-87
2022/01/20 10:18:34;;;;;;;19.58;3.45;;;;;;;2.75;100.00;102150.00;5006329;28;20106;-87
2022/01/20 10:21:03;;;;;;;17.23;3.25;;;;;;;2.78;100.00;102145.38;4963556;28;20505;-87
2022/01/20 10:23:46;;;;;;;14.70;4.00;;;;;;;2.83;100.00;102150.47;4897549;28;20042;-87
2022/01/20 10:26:18;;;;;;;19.58;4.55;;;;;;;2.85;100.00;102162.69;4962584;28;20437;-87
2022/01/20 10:29:05;;;;;;;15.70;3.50;;;;;;;2.87;100.00;102160.78;4978920;28;20821;-87
2022/01/20 10:31:46;;;;;;;13.75;3.10;;;;;;;2.91;100.00;102159.72;4961231;28;20517;-87
2022/01/20 10:34:30;;;;;;;15.95;2.90;;;;;;;2.92;100.00;102164.06;4977952;28;20049;-87
2022/01/20 10:37:04;;;;;;;13.98;3.17;;;;;;;2.97;100.00;102171.78;4900791;28;20092;-87
2022/01/20 10:39:38;;;;;;;11.85;3.92;;;;;;;3.01;100.00;102169.81;4938553;28;20039;-88
2022/01/20 10:42:15;;;;;;;11.20;3.03;;;;;;;3.10;100.00;102172.84;4962368;28;20039;-87
2022/01/20 10:44:56;;;;;;;11.57;3.00;;;;;;;3.12;100.00;102165.66;4985646;28;20086;-87
2022/01/20 10:47:22;;;;;;;15.35;3.65;;;;;;;3.20;100.00;102181.19;4978956;28;20051;-88
2022/01/20 10:49:48;;;;;;;10.07;2.17;;;;;;;3.34;100.00;102157.41;4962786;28;21917;-87
2022/01/20 10:52:17;;;;;;;11.35;2.90;;;;;;;3.44;99.78;102176.31;4963737;28;20126;-88
2022/01/20 10:54:52;;;;;;;15.23;3.17;;;;;;;3.41;98.50;102171.19;4965572;28;20095;-87
2022/01/20 10:57:25;;;;;;;13.93;3.05;;;;;;;3.40;97.83;102164.16;4964239;28;20061;-87
2022/01/20 10:59:54;;;;;;;6.93;2.33;;;;;;;3.44;98.00;102180.78;4901442;28;20049;-87
2022/01/20 11:02:22;;;;;;;19.63;3.47;;;;;;;3.38;96.36;102169.56;4973152;28;20074;-87
2022/01/20 11:04:48;;;;;;;10.33;2.70;;;;;;;3.35;97.24;102176.81;4905950;28;20041;-87
2022/01/20 11:07:14;;;;;;;15.88;2.85;;;;;;;3.35;98.38;102172.38;4923918;28;20045;-87
2022/01/20 11:09:45;;;;;;;15.43;4.15;;;;;;;3.33;97.33;102174.25;4966033;28;20047;-87
2022/01/20 11:12:15;;;;;;;12.45;2.67;;;;;;;3.31;97.55;102177.91;4975700;28;20042;-87
2022/01/20 11:14:43;;;;;;;11.43;3.08;;;;;;;3.33;98.41;102178.69;4964898;28;20398;-87
2022/01/20 11:17:17;;;;;;;9.70;2.58;;;;;;;3.33;98.02;102182.19;4949301;28;20049;-88
2022/01/20 11:19:42;;;;;;;15.35;3.40;;;;;;;3.30;97.39;102168.25;4966648;28;20047;-88
2022/01/20 11:22:10;;;;;;;14.90;2.50;;;;;;;3.26;98.39;102167.56;4980778;28;20537;-88
2022/01/20 11:24:36;;;;;;;14.68;3.30;;;;;;;3.35;100.00;102156.44;4967630;28;20045;-87
2022/01/20 11:27:03;;;;;;;14.48;3.35;;;;;;;3.52;100.00;102157.31;4983183;28;20070;-88
2022/01/20 11:30:01;;;;;;;12.48;3.03;;;;;;;3.59;98.82;102153.38;4980960;28;20070;-88
2022/01/20 11:32:29;;;;;;;14.77;3.28;;;;;;;3.54;98.22;102147.47;4910287;28;20066;-88
2022/01/20 11:35:04;;;;;;;12.27;2.63;;;;;;;3.50;98.53;102157.41;4972138;28;20576;-88
2022/01/20 11:37:37;;;;;;;19.08;4.40;;;;;;;3.51;99.46;102150.28;4962534;28;20047;-88
2022/01/20 11:40:14;;;;;;;20.05;5.88;;;;;;;3.57;100.00;102139.34;4947489;28;20615;-88
2022/01/20 11:42:39;;;;;;;15.00;3.53;;;;;;;3.62;99.19;102145.22;4926357;28;20047;-88
2022/01/20 11:45:33;;;;;;;10.82;2.72;;;;;;;3.68;100.00;102128.09;4963731;28;20058;-87
2022/01/20 11:48:18;;;;;;;12.85;2.90;;;;;;;3.66;99.13;102128.22;4863605;29;20053;-87
2022/01/20 11:50:44;;;;;;;17.73;3.13;;;;;;;3.74;99.51;102125.97;4980154;28;20042;-88
2022/01/20 11:53:14;;;;;;;13.45;2.78;;;;;;;3.81;97.40;102126.47;4966312;28;20053;-88
2022/01/20 11:55:45;;;;;;;14.35;3.08;;;;;;;3.95;97.20;102133.66;4982868;28;20129;-87
2022/01/20 11:58:12;;;;;;;15.40;3.83;;;;;;;3.99;98.56;102135.19;4897673;28;20041;-87
2022/01/20 12:00:37;;;;;;;14.13;3.00;;;;;;;3.98;97.51;102129.00;4981735;28;20513;-88
2022/01/20 12:03:14;;;;;;;14.05;3.28;;;;;;;4.17;97.24;102139.44;4982038;28;20069;-88
2022/01/20 12:05:40;;;;;;;9.98;2.88;;;;;;;4.09;93.80;102115.13;4981667;28;20050;-88
2022/01/20 12:08:08;;;;;;;11.50;2.80;;;;;;;4.09;94.32;102120.44;4957916;28;20051;-88
2022/01/20 12:10:33;;;;;;;15.45;2.60;;;;;;;4.16;95.46;102118.25;4981309;28;20050;-89
2022/01/20 12:13:13;;;;;;;15.48;3.10;;;;;;;4.02;93.70;102105.78;4967085;28;20049;-88
2022/01/20 12:15:49;;;;;;;9.30;2.50;;;;;;;3.99;94.42;102103.31;4981110;28;20113;-88
2022/01/20 12:18:15;;;;;;;12.15;3.00;;;;;;;4.03;95.75;102111.00;4970620;28;20046;-88
2022/01/20 12:20:40;;;;;;;13.43;3.50;;;;;;;4.05;95.59;102118.88;4991132;28;20033;-88